createdAt,value
2019-01-19T00:02:20.087Z,100652.69
2019-01-19T00:07:29.218Z,100648.95
2019-01-19T00:12:53.566Z,100650.75
2019-01-19T00:18:00.089Z,100650.16
2019-01-19T00:23:12.607Z,100645.80
2019-01-19T00:28:34.181Z,100652.73
2019-01-19T00:33:57.647Z,100647.58
2019-01-19T00:39:09.883Z,100641.84
2019-01-19T00:44:28.651Z,100647.39
2019-01-19T00:49:32.667Z,100647.98
2019-01-19T00:54:39.536Z,100649.20
2019-01-19T00:59:43.820Z,100647.03
2019-01-19T01:04:52.934Z,100651.19
2019-01-19T01:10:05.206Z,100650.59
2019-01-19T01:15:20.472Z,100648.81
2019-01-19T01:20:36.255Z,100648.81
2019-01-19T01:25:48.856Z,100648.62
2019-01-19T01:30:55.391Z,100647.83
2019-01-19T01:36:10.658Z,100649.81
2019-01-19T01:41:39.767Z,100644.27
2019-01-19T01:47:12.013Z,100649.62
2019-01-19T01:52:35.382Z,100647.44
2019-01-19T01:57:40.286Z,100641.11
2019-01-19T02:02:58.832Z,100636.59
2019-01-19T02:08:14.306Z,100632.60
2019-01-19T02:13:37.187Z,100630.06
2019-01-19T02:18:58.880Z,100630.06
2019-01-19T02:24:26.563Z,100632.05
2019-01-19T02:29:35.899Z,100624.92
2019-01-19T02:34:45.246Z,100627.70
2019-01-19T02:40:00.901Z,100623.54
2019-01-19T02:45:23.862Z,100626.12
2019-01-19T02:50:30.454Z,100627.30
2019-01-19T02:55:43.088Z,100624.53
2019-01-19T03:00:49.612Z,100617.61
2019-01-19T03:05:56.546Z,100611.88
2019-01-19T03:11:05.977Z,100613.09
2019-01-19T03:16:18.602Z,100615.86
2019-01-19T03:21:43.259Z,100613.09
2019-01-19T03:26:52.729Z,100615.67
2019-01-19T03:32:05.343Z,100612.91
2019-01-19T03:37:40.515Z,100618.84
2019-01-19T03:42:55.919Z,100611.32
2019-01-19T03:48:08.268Z,100607.16
2019-01-19T03:53:19.338Z,100602.02
2019-01-19T03:58:28.407Z,100597.87
2019-01-19T04:03:46.836Z,100599.85
2019-01-19T04:09:11.689Z,100599.85
2019-01-19T04:14:29.870Z,100600.45
2019-01-19T04:20:00.542Z,100587.78
2019-01-19T04:25:12.923Z,100592.53
2019-01-19T04:30:16.460Z,100592.38
2019-01-19T04:35:19.937Z,100588.22
2019-01-19T04:40:23.395Z,100597.12
2019-01-19T04:45:26.865Z,100593.76
2019-01-19T04:50:30.331Z,100589.60
2019-01-19T04:55:33.795Z,100597.91
2019-01-19T05:00:37.443Z,100595.55
2019-01-19T05:05:40.914Z,100593.76
2019-01-19T05:10:44.375Z,100592.53
2019-01-19T05:15:47.843Z,100587.00
2019-01-19T05:20:52.095Z,100588.17
2019-01-19T05:25:55.630Z,100590.95
2019-01-19T05:30:59.305Z,100589.56
2019-01-19T05:36:02.844Z,100589.95
2019-01-19T05:41:06.311Z,100601.04
2019-01-19T05:46:09.779Z,100593.33
2019-01-19T05:51:13.247Z,100589.77
2019-01-19T05:56:16.955Z,100597.48
2019-01-19T06:01:21.090Z,100596.53
2019-01-19T06:06:24.841Z,100595.14
2019-01-19T06:11:28.340Z,100594.95
2019-01-19T06:16:31.810Z,100596.92
2019-01-19T06:21:35.686Z,100600.05
2019-01-19T06:26:39.173Z,100596.88
2019-01-19T06:31:42.665Z,100595.70
2019-01-19T06:36:46.136Z,100594.70
2019-01-19T06:41:49.615Z,100591.73
2019-01-19T06:46:53.106Z,100595.89
2019-01-19T06:51:56.591Z,100595.09
2019-01-19T06:57:00.079Z,100580.13
2019-01-19T07:02:03.573Z,100608.16
2019-01-19T07:07:07.060Z,100602.06
2019-01-19T07:12:10.741Z,100600.29
2019-01-19T07:17:14.230Z,100609.58
2019-01-19T07:22:17.715Z,100613.55
2019-01-19T07:27:21.203Z,100611.97
2019-01-19T07:32:24.692Z,100610.58
2019-01-19T07:37:28.181Z,100620.87
2019-01-19T07:42:31.713Z,100614.73
2019-01-19T07:47:35.897Z,100616.12
2019-01-19T07:52:39.484Z,100616.31
2019-01-19T07:57:42.972Z,100621.86
2019-01-19T08:02:46.455Z,100628.98
2019-01-19T08:07:49.945Z,100623.99
2019-01-19T08:12:53.425Z,100623.99
2019-01-19T08:17:56.910Z,100618.05
2019-01-19T08:23:00.391Z,100616.94
2019-01-19T08:28:03.942Z,100620.27
2019-01-19T08:33:07.422Z,100627.50
2019-01-19T08:38:10.906Z,100622.50
2019-01-19T08:43:25.061Z,100617.92
2019-01-19T08:48:28.501Z,100626.39
2019-01-19T08:53:31.987Z,100619.83
2019-01-19T08:58:35.470Z,100622.78
2019-01-19T09:03:38.960Z,100610.09
2019-01-19T09:08:42.443Z,100615.03
2019-01-19T09:13:45.924Z,100612.63
2019-01-19T09:18:49.410Z,100613.24
2019-01-19T09:23:54.599Z,100617.36
2019-01-19T09:28:58.092Z,100617.75
2019-01-19T09:34:01.579Z,100616.17
2019-01-19T09:39:08.118Z,100617.94
2019-01-19T09:44:11.821Z,100619.69
2019-01-19T09:49:15.467Z,100618.70
2019-01-19T09:54:18.971Z,100618.30
2019-01-19T09:59:22.439Z,100609.39
2019-01-19T10:04:25.929Z,100611.38
2019-01-19T10:09:29.417Z,100612.36
2019-01-19T10:14:32.898Z,100610.37
2019-01-19T10:19:36.382Z,100601.63
2019-01-19T10:24:39.864Z,100598.27
2019-01-19T10:29:43.520Z,100591.34
2019-01-19T10:34:47.004Z,100599.06
2019-01-19T10:39:50.489Z,100592.52
2019-01-19T10:44:53.974Z,100581.64
2019-01-19T10:49:57.458Z,100581.83
2019-01-19T10:55:00.955Z,100576.89
2019-01-19T11:00:10.039Z,100568.34
2019-01-19T11:05:14.936Z,100564.97
2019-01-19T11:10:20.766Z,100559.03
2019-01-19T11:15:24.419Z,100550.70
2019-01-19T11:20:29.952Z,100536.85
2019-01-19T11:25:33.599Z,100532.70
2019-01-19T11:30:37.079Z,100528.09
2019-01-19T11:35:40.563Z,100522.08
2019-01-19T11:40:44.051Z,100516.68
2019-01-19T11:45:47.537Z,100511.28
2019-01-19T11:50:51.039Z,100507.31
2019-01-19T11:55:54.523Z,100511.66
2019-01-19T12:00:58.011Z,100507.84
2019-01-19T12:06:01.867Z,100500.09
2019-01-19T12:11:05.422Z,100496.54
2019-01-19T12:16:08.910Z,100488.41
2019-01-19T12:21:12.390Z,100482.27
2019-01-19T12:26:15.879Z,100480.48
2019-01-19T12:31:19.364Z,100481.27
2019-01-19T12:36:22.846Z,100471.52
2019-01-19T12:41:26.335Z,100470.70
2019-01-19T12:46:29.805Z,100460.39
2019-01-19T12:51:33.347Z,100457.81
2019-01-19T12:56:36.822Z,100451.48
2019-01-19T13:01:40.292Z,100451.23
2019-01-19T13:06:43.764Z,100438.75
2019-01-19T13:11:50.286Z,100439.36
2019-01-19T13:17:29.835Z,100422.31
2019-01-19T13:22:54.482Z,100425.41
2019-01-19T13:28:01.071Z,100413.11
2019-01-19T13:33:13.738Z,100419.26
2019-01-19T13:38:45.340Z,100420.39
2019-01-19T13:44:03.922Z,100412.86
2019-01-19T13:49:30.290Z,100412.86
2019-01-19T13:54:42.789Z,100409.68
2019-01-19T13:59:55.329Z,100400.63
2019-01-19T14:05:16.266Z,100397.48
2019-01-19T14:10:22.806Z,100395.72
2019-01-19T14:15:35.397Z,100386.42
2019-01-19T14:21:00.438Z,100384.28
2019-01-19T14:26:19.099Z,100386.08
2019-01-19T14:31:45.248Z,100377.41
2019-01-19T14:37:00.835Z,100375.08
2019-01-19T14:42:28.441Z,100371.77
2019-01-19T14:47:44.173Z,100370.55
2019-01-19T14:52:53.180Z,100364.40
2019-01-19T14:58:05.072Z,100366.23
2019-01-19T15:03:26.880Z,100357.81
2019-01-19T15:08:36.435Z,100355.17
2019-01-19T15:13:52.006Z,100351.42
2019-01-19T15:19:13.773Z,100356.97
2019-01-19T15:24:20.575Z,100350.89
2019-01-19T15:29:27.095Z,100341.41
2019-01-19T15:35:04.209Z,100343.39
2019-01-19T15:40:25.998Z,100346.38
2019-01-19T15:45:44.452Z,100340.48
2019-01-19T15:51:10.995Z,100336.73
2019-01-19T15:56:42.155Z,100335.95
2019-01-19T16:01:57.632Z,100334.38
2019-01-19T16:07:10.133Z,100337.56
2019-01-19T16:12:31.531Z,100332.11
2019-01-19T16:17:43.579Z,100329.53
2019-01-19T16:22:52.966Z,100328.27
2019-01-19T16:28:25.260Z,100327.45
2019-01-19T16:33:40.337Z,100323.28
2019-01-19T16:38:49.405Z,100324.38
2019-01-19T16:44:00.440Z,100326.97
2019-01-19T16:49:24.845Z,100320.06
2019-01-19T16:54:34.489Z,100330.62
2019-01-19T16:59:44.033Z,100322.31
2019-01-19T17:04:59.112Z,100326.88
2019-01-19T17:10:05.649Z,100320.20
2019-01-19T17:15:34.794Z,100319.04
2019-01-19T17:20:56.546Z,100314.84
2019-01-19T17:26:14.689Z,100307.06
2019-01-19T17:31:36.258Z,100304.06
2019-01-19T17:36:59.375Z,100303.62
2019-01-19T17:42:14.673Z,100306.48
2019-01-19T17:47:21.208Z,100306.78
2019-01-19T17:52:36.515Z,100308.13
2019-01-19T17:58:02.677Z,100308.06
2019-01-19T18:03:27.698Z,100308.25
2019-01-19T18:08:42.677Z,100306.26
2019-01-19T18:13:55.407Z,100304.27
2019-01-19T18:19:24.842Z,100309.41
2019-01-19T18:24:37.160Z,100307.91
2019-01-19T18:29:52.440Z,100303.52
2019-01-19T18:35:10.756Z,100305.84
2019-01-19T18:40:38.299Z,100304.16
2019-01-19T18:45:47.418Z,100308.55
2019-01-19T18:50:53.932Z,100296.92
2019-01-19T18:56:18.789Z,100298.13
2019-01-19T19:01:41.854Z,100299.33
2019-01-19T19:06:54.176Z,100302.95
2019-01-19T19:12:21.847Z,100300.19
2019-01-19T19:17:40.098Z,100296.25
2019-01-19T19:22:58.493Z,100292.13
2019-01-19T19:28:24.440Z,100294.91
2019-01-19T19:33:36.830Z,100295.34
2019-01-19T19:38:48.899Z,100294.55
2019-01-19T19:44:07.197Z,100292.20
2019-01-19T19:49:37.639Z,100290.63
2019-01-19T19:54:44.170Z,100288.86
2019-01-19T19:59:47.662Z,100290.44
2019-01-19T20:04:52.238Z,100282.97
2019-01-19T20:09:55.726Z,100280.02
2019-01-19T20:14:59.215Z,100277.66
2019-01-19T20:20:02.968Z,100268.55
2019-01-19T20:25:07.922Z,100272.33
2019-01-19T20:30:14.458Z,100283.42
2019-01-19T20:35:17.941Z,100275.95
2019-01-19T20:40:24.413Z,100278.92
2019-01-19T20:45:26.640Z,100282.89
2019-01-19T20:50:30.133Z,100277.73
2019-01-19T20:55:33.622Z,100278.92
2019-01-19T21:00:37.007Z,100281.70
2019-01-19T21:05:40.490Z,100284.28
2019-01-19T21:10:43.981Z,100284.88
2019-01-19T21:15:47.471Z,100287.47
2019-01-19T21:20:50.957Z,100286.08
2019-01-19T21:25:54.449Z,100281.77
2019-01-19T21:30:57.932Z,100279.41
2019-01-19T21:36:01.419Z,100285.55
2019-01-19T21:41:04.902Z,100276.26
2019-01-19T21:46:08.392Z,100278.24
2019-01-19T21:51:11.877Z,100282.22
2019-01-19T21:56:15.367Z,100278.05
2019-01-19T22:01:18.846Z,100277.87
2019-01-19T22:06:22.337Z,100271.73
2019-01-19T22:11:25.829Z,100266.59
2019-01-19T22:16:29.316Z,100269.20
2019-01-19T22:21:32.806Z,100266.44
2019-01-19T22:26:36.758Z,100262.09
2019-01-19T22:31:40.258Z,100267.63
2019-01-19T22:36:43.750Z,100257.74
2019-01-19T22:41:47.242Z,100261.30
2019-01-19T22:46:50.753Z,100262.27
2019-01-19T22:51:54.219Z,100261.05
2019-01-19T22:56:57.699Z,100252.92
2019-01-19T23:02:01.252Z,100250.15
2019-01-19T23:07:04.805Z,100251.13
2019-01-19T23:12:08.291Z,100247.75
2019-01-19T23:17:11.778Z,100248.34
2019-01-19T23:22:15.262Z,100257.45
2019-01-19T23:27:18.749Z,100254.49
2019-01-19T23:32:22.232Z,100250.34
2019-01-19T23:37:25.723Z,100253.89
2019-01-19T23:42:29.213Z,100249.73
2019-01-19T23:47:32.686Z,100244.98
2019-01-19T23:52:36.166Z,100253.11
2019-01-19T23:57:39.655Z,100247.56
